Time;durP1;ratioP1;P1;durP2;ratioP2;P2;SDS_P1;SDS_P2;PMS_P1;PMS_P2;Temp;Humidity;BMP_temperature;BMP_pressure;BME280_temperature;BME280_humidity;BME280_pressure;Samples;Min_cycle;Max_cycle;Signal;HPM_P1;HPM_P2
2023/09/03 00:02:06;;;;;;;8.85;3.72;;;19.40;99.90;;;;;;4996718;28;20080;-75
2023/09/03 00:04:32;;;;;;;10.60;4.60;;;19.40;99.90;;;;;;5000609;28;20054;-75
2023/09/03 00:06:58;;;;;;;5.40;4.38;;;19.30;99.90;;;;;;4994488;28;20125;-75
2023/09/03 00:09:23;;;;;;;6.43;3.80;;;19.40;99.90;;;;;;5006502;28;20210;-75
2023/09/03 00:11:49;;;;;;;8.13;3.78;;;19.40;99.90;;;;;;5001143;28;20080;-75
2023/09/03 00:14:15;;;;;;;7.18;4.10;;;19.30;99.90;;;;;;4999762;28;20022;-75
2023/09/03 00:16:40;;;;;;;9.65;4.60;;;19.10;99.90;;;;;;5000180;28;20033;-75
2023/09/03 00:19:06;;;;;;;6.32;3.83;;;19.10;99.90;;;;;;4992841;28;20392;-75
2023/09/03 00:21:31;;;;;;;6.22;3.53;;;18.80;99.90;;;;;;5002264;28;20103;-75
2023/09/03 00:23:57;;;;;;;10.30;4.20;;;18.80;99.90;;;;;;5000076;28;20056;-75
2023/09/03 00:26:26;;;;;;;9.57;4.28;;;18.80;99.90;;;;;;4997498;28;20030;-75
2023/09/03 00:28:52;;;;;;;8.68;4.05;;;18.80;99.90;;;;;;4993822;28;20392;-75
2023/09/03 00:31:17;;;;;;;6.75;4.15;;;18.80;99.90;;;;;;4997025;28;20030;-75
2023/09/03 00:33:43;;;;;;;9.60;4.88;;;18.70;99.90;;;;;;4996954;28;20042;-75
2023/09/03 00:36:09;;;;;;;7.65;3.88;;;18.60;99.90;;;;;;4998344;28;20125;-75
2023/09/03 00:38:35;;;;;;;6.25;3.58;;;18.60;99.90;;;;;;4996881;28;20037;-75
2023/09/03 00:41:04;;;;;;;8.75;4.68;;;18.60;99.90;;;;;;4993129;28;20396;-75
2023/09/03 00:43:31;;;;;;;6.47;3.60;;;18.70;99.90;;;;;;4992204;28;20023;-76
2023/09/03 00:45:58;;;;;;;13.38;4.93;;;18.70;99.90;;;;;;4994816;28;20034;-75
2023/09/03 00:48:28;;;;;;;8.27;4.68;;;18.80;99.90;;;;;;4992475;28;20054;-76
2023/09/03 00:50:55;;;;;;;8.63;4.95;;;19.00;99.90;;;;;;4994560;28;20472;-75
2023/09/03 00:53:23;;;;;;;7.00;4.25;;;19.00;99.90;;;;;;4998219;28;20026;-75
2023/09/03 00:55:49;;;;;;;8.80;4.53;;;19.00;99.90;;;;;;5000898;28;20034;-75
2023/09/03 00:58:15;;;;;;;7.38;4.40;;;18.70;99.90;;;;;;4998370;28;20384;-76
2023/09/03 01:00:41;;;;;;;7.80;4.28;;;18.60;99.90;;;;;;4994796;28;20567;-75
2023/09/03 01:03:07;;;;;;;6.18;4.10;;;18.70;99.90;;;;;;4992501;28;20060;-75
2023/09/03 01:05:33;;;;;;;8.02;4.65;;;18.80;99.90;;;;;;4991883;28;20049;-75
2023/09/03 01:08:00;;;;;;;9.70;4.15;;;18.90;99.90;;;;;;4997154;28;20480;-75
2023/09/03 01:11:04;;;;;;;8.73;4.93;;;18.80;99.90;;;;;;4996790;28;20022;-75
2023/09/03 01:13:38;;;;;;;7.78;4.63;;;18.90;99.90;;;;;;4986281;28;20423;-75
2023/09/03 01:16:10;;;;;;;8.88;4.82;;;18.90;99.90;;;;;;5005244;28;20034;-75
2023/09/03 01:18:37;;;;;;;7.45;5.03;;;19.00;99.90;;;;;;4999145;28;20034;-75
2023/09/03 01:21:40;;;;;;;6.53;4.85;;;19.10;99.90;;;;;;4994440;28;20033;-75
2023/09/03 01:24:19;;;;;;;7.53;4.72;;;19.00;99.90;;;;;;4993967;28;20521;-75
2023/09/03 01:27:06;;;;;;;7.93;3.88;;;18.90;99.90;;;;;;4992265;28;20112;-75
2023/09/03 01:29:32;;;;;;;6.28;4.15;;;18.90;99.90;;;;;;5006440;28;20069;-75
2023/09/03 01:31:59;;;;;;;9.65;4.53;;;18.70;99.90;;;;;;4999333;28;20031;-75
2023/09/03 01:34:26;;;;;;;6.53;4.28;;;18.50;99.90;;;;;;5000479;28;20496;-75
2023/09/03 01:36:52;;;;;;;9.75;4.35;;;18.50;99.90;;;;;;5003303;28;20023;-75
2023/09/03 01:39:19;;;;;;;7.93;4.75;;;18.50;99.90;;;;;;4999029;28;20021;-75
2023/09/03 01:41:45;;;;;;;11.05;5.20;;;18.60;99.90;;;;;;4993303;28;20034;-75
2023/09/03 01:44:11;;;;;;;6.50;4.68;;;18.80;99.90;;;;;;4996555;28;20022;-75
2023/09/03 01:46:45;;;;;;;6.63;4.32;;;18.90;99.90;;;;;;5001779;28;20032;-75
2023/09/03 01:49:23;;;;;;;7.28;4.15;;;18.90;99.90;;;;;;5003504;28;20038;-75
2023/09/03 01:52:19;;;;;;;7.57;4.22;;;18.80;99.90;;;;;;4993553;28;20038;-75
2023/09/03 01:54:48;;;;;;;9.05;4.80;;;18.70;99.90;;;;;;4993579;28;20480;-75
2023/09/03 01:57:30;;;;;;;6.25;4.07;;;18.60;99.90;;;;;;4993149;28;20034;-75
2023/09/03 02:00:00;;;;;;;9.48;4.55;;;18.60;99.90;;;;;;4994596;28;20112;-75
2023/09/03 02:02:27;;;;;;;8.52;4.55;;;18.60;99.90;;;;;;4993358;28;20159;-75
2023/09/03 02:04:54;;;;;;;10.30;5.20;;;18.50;99.90;;;;;;4993361;28;20134;-75
2023/09/03 02:07:20;;;;;;;8.20;4.95;;;18.60;99.90;;;;;;4995726;28;20527;-75
2023/09/03 02:09:46;;;;;;;10.40;4.75;;;18.60;99.90;;;;;;4995582;28;20034;-75
2023/09/03 02:12:11;;;;;;;7.50;4.28;;;18.50;99.90;;;;;;4992366;28;20034;-76
2023/09/03 02:14:37;;;;;;;7.90;4.72;;;18.40;99.90;;;;;;4994144;28;20026;-75
2023/09/03 02:17:03;;;;;;;8.70;4.30;;;18.50;99.90;;;;;;5003254;28;20152;-75
2023/09/03 02:19:29;;;;;;;8.20;4.50;;;18.50;99.90;;;;;;4986598;28;20879;-75
2023/09/03 02:21:54;;;;;;;7.05;4.57;;;18.50;99.90;;;;;;4995462;28;20058;-75
2023/09/03 02:24:20;;;;;;;7.90;4.18;;;18.50;99.90;;;;;;4992763;28;20026;-75
2023/09/03 02:26:46;;;;;;;8.68;4.40;;;18.50;99.90;;;;;;4992027;28;20022;-75
2023/09/03 02:29:13;;;;;;;8.43;5.03;;;18.50;99.90;;;;;;5001831;28;20038;-75
2023/09/03 02:31:39;;;;;;;9.80;5.30;;;18.50;99.90;;;;;;4993784;28;20034;-75
2023/09/03 02:34:06;;;;;;;8.07;4.55;;;18.50;99.90;;;;;;4994847;28;20052;-75
2023/09/03 02:36:33;;;;;;;9.27;5.28;;;18.40;99.90;;;;;;4999244;28;20468;-75
2023/09/03 02:39:04;;;;;;;7.53;4.82;;;18.40;99.90;;;;;;4993198;28;20461;-75
2023/09/03 02:41:30;;;;;;;7.15;4.93;;;18.30;99.90;;;;;;4990362;28;20034;-75
2023/09/03 02:44:01;;;;;;;7.40;4.50;;;18.30;99.90;;;;;;4996285;28;20022;-75
2023/09/03 02:46:27;;;;;;;11.32;5.47;;;18.30;99.90;;;;;;4996243;28;20036;-75
2023/09/03 02:48:53;;;;;;;6.82;4.95;;;18.30;99.90;;;;;;4993139;28;20526;-75
2023/09/03 02:51:19;;;;;;;7.45;4.63;;;18.40;99.90;;;;;;4992402;28;20058;-75
2023/09/03 02:53:45;;;;;;;7.70;5.10;;;18.30;99.90;;;;;;4994782;28;20384;-75
2023/09/03 02:56:13;;;;;;;9.15;5.10;;;18.40;99.90;;;;;;4993264;28;20030;-75
2023/09/03 02:58:39;;;;;;;8.52;4.88;;;18.40;99.90;;;;;;4991351;28;20034;-75
2023/09/03 03:01:10;;;;;;;9.30;5.22;;;18.40;99.90;;;;;;4995009;28;20029;-74
2023/09/03 03:03:36;;;;;;;8.93;5.28;;;18.40;99.90;;;;;;4997712;28;20034;-74
2023/09/03 03:06:02;;;;;;;9.05;4.82;;;18.40;99.90;;;;;;4989891;28;20053;-74
2023/09/03 03:08:28;;;;;;;10.07;5.25;;;18.40;99.90;;;;;;4995726;28;20133;-74
2023/09/03 03:11:07;;;;;;;11.80;5.43;;;18.50;99.90;;;;;;4994971;28;20356;-74
2023/09/03 03:13:33;;;;;;;6.20;4.18;;;18.50;99.90;;;;;;4992910;28;20061;-75
2023/09/03 03:16:06;;;;;;;7.10;4.65;;;18.40;99.90;;;;;;4996519;28;20030;-74
2023/09/03 03:18:33;;;;;;;7.25;4.55;;;18.30;99.90;;;;;;4989648;28;21302;-74
2023/09/03 03:21:14;;;;;;;6.53;4.78;;;18.30;99.90;;;;;;4994341;28;20132;-74
2023/09/03 03:23:41;;;;;;;7.18;4.03;;;18.40;99.90;;;;;;4987011;28;20709;-74
2023/09/03 03:26:07;;;;;;;11.70;4.85;;;18.30;99.90;;;;;;4990820;28;20023;-74
2023/09/03 03:28:34;;;;;;;7.13;4.65;;;18.30;99.90;;;;;;4989176;28;20053;-74
2023/09/03 03:31:09;;;;;;;8.25;4.15;;;18.40;99.90;;;;;;4990840;28;20026;-74
2023/09/03 03:33:35;;;;;;;6.55;4.35;;;18.30;99.90;;;;;;4994711;28;20026;-74
2023/09/03 03:36:01;;;;;;;7.22;4.60;;;18.40;99.90;;;;;;4992772;28;20389;-74
2023/09/03 03:38:27;;;;;;;7.07;4.50;;;18.40;99.90;;;;;;4991051;28;20069;-74
2023/09/03 03:40:52;;;;;;;7.20;4.47;;;18.30;99.90;;;;;;4987020;28;20680;-74
2023/09/03 03:43:18;;;;;;;7.13;4.35;;;18.20;99.90;;;;;;4993986;28;20584;-74
2023/09/03 03:45:44;;;;;;;7.72;4.93;;;18.30;99.90;;;;;;4993307;28;20018;-74
2023/09/03 03:48:09;;;;;;;10.02;5.05;;;18.40;99.90;;;;;;4998014;28;20443;-74
2023/09/03 03:50:35;;;;;;;6.47;3.90;;;18.40;99.90;;;;;;4998218;28;20109;-74
2023/09/03 03:53:01;;;;;;;11.35;4.72;;;18.40;99.90;;;;;;4994663;28;20073;-74
2023/09/03 03:55:27;;;;;;;9.90;4.65;;;18.30;99.90;;;;;;4994673;28;20061;-74
2023/09/03 03:57:52;;;;;;;7.28;4.72;;;18.20;99.90;;;;;;4993734;28;20108;-74
2023/09/03 04:00:18;;;;;;;7.88;5.20;;;18.30;99.90;;;;;;4991797;28;20040;-73
2023/09/03 04:02:43;;;;;;;7.90;4.13;;;18.30;99.90;;;;;;5001435;28;20041;-74
2023/09/03 04:05:09;;;;;;;6.10;3.63;;;18.20;99.90;;;;;;4989487;28;20035;-74
2023/09/03 04:07:35;;;;;;;9.18;4.90;;;18.20;99.90;;;;;;4996086;28;20045;-74
2023/09/03 04:10:00;;;;;;;6.53;3.92;;;18.10;99.90;;;;;;4998981;28;20065;-74
2023/09/03 04:12:26;;;;;;;9.40;5.53;;;18.20;99.90;;;;;;4993658;28;20038;-74
2023/09/03 04:14:51;;;;;;;8.18;5.28;;;18.20;99.90;;;;;;4997896;28;20668;-74
2023/09/03 04:17:17;;;;;;;7.63;5.65;;;18.10;99.90;;;;;;4997126;28;20027;-74
2023/09/03 04:19:47;;;;;;;6.32;4.35;;;18.10;99.90;;;;;;4992484;28;20037;-74
2023/09/03 04:22:13;;;;;;;6.85;4.80;;;18.00;99.90;;;;;;4993372;28;20049;-74
2023/09/03 04:24:38;;;;;;;8.90;4.65;;;17.90;99.90;;;;;;4995007;28;20045;-75
2023/09/03 04:27:04;;;;;;;8.32;5.10;;;17.80;99.90;;;;;;4994857;28;20076;-74
2023/09/03 04:29:30;;;;;;;7.90;4.05;;;17.80;99.90;;;;;;4998415;28;20030;-74
2023/09/03 04:31:56;;;;;;;6.80;4.68;;;18.00;99.90;;;;;;4996838;28;20060;-74
2023/09/03 04:34:21;;;;;;;9.82;4.65;;;17.90;99.90;;;;;;4991643;28;20041;-74
2023/09/03 04:36:47;;;;;;;7.85;4.35;;;18.00;99.90;;;;;;4993461;28;20030;-74
2023/09/03 04:39:13;;;;;;;8.23;4.97;;;17.90;99.90;;;;;;4990354;28;20049;-74
2023/09/03 04:41:38;;;;;;;6.03;4.63;;;17.90;99.90;;;;;;4995255;28;20064;-74
2023/09/03 04:44:09;;;;;;;7.97;4.78;;;17.90;99.90;;;;;;4993205;28;20062;-74
2023/09/03 04:46:34;;;;;;;9.82;4.40;;;17.90;99.90;;;;;;4988892;28;20048;-74
2023/09/03 04:49:01;;;;;;;7.20;5.07;;;18.00;99.90;;;;;;4992064;28;20492;-74
2023/09/03 04:51:26;;;;;;;9.00;5.15;;;18.00;99.90;;;;;;4991724;28;20038;-74
2023/09/03 04:53:53;;;;;;;7.20;4.32;;;18.00;99.90;;;;;;4991164;28;20037;-74
2023/09/03 04:56:18;;;;;;;7.03;4.20;;;18.00;99.90;;;;;;4991045;28;20121;-74
2023/09/03 04:58:44;;;;;;;6.28;4.28;;;17.90;99.90;;;;;;4991872;28;20112;-74
2023/09/03 05:01:16;;;;;;;8.02;4.38;;;17.90;99.90;;;;;;4993779;28;20042;-74
2023/09/03 05:03:42;;;;;;;7.68;4.38;;;18.00;99.90;;;;;;4993584;28;20113;-74
2023/09/03 05:06:13;;;;;;;5.65;3.90;;;18.00;99.90;;;;;;4993619;28;20152;-74
2023/09/03 05:08:38;;;;;;;8.60;5.03;;;18.10;99.90;;;;;;4992249;28;20476;-74
2023/09/03 05:11:15;;;;;;;9.18;4.20;;;18.10;99.90;;;;;;4990950;28;20038;-74
2023/09/03 05:13:40;;;;;;;11.00;5.03;;;18.10;99.90;;;;;;4985783;28;20030;-74
2023/09/03 05:16:06;;;;;;;7.50;4.60;;;18.20;99.90;;;;;;4990800;28;20476;-74
2023/09/03 05:18:35;;;;;;;8.15;4.10;;;18.10;99.90;;;;;;4992018;28;20026;-74
2023/09/03 05:21:10;;;;;;;8.88;4.85;;;18.00;99.90;;;;;;4993803;28;20022;-74
2023/09/03 05:23:36;;;;;;;8.60;4.85;;;17.90;99.90;;;;;;4988968;28;20031;-74
2023/09/03 05:26:02;;;;;;;7.60;3.70;;;18.00;99.90;;;;;;4985830;28;20093;-74
2023/09/03 05:28:28;;;;;;;8.43;4.60;;;18.10;99.90;;;;;;4988075;28;20552;-74
2023/09/03 05:30:53;;;;;;;7.43;4.60;;;18.30;99.90;;;;;;4993599;28;20459;-74
2023/09/03 05:33:19;;;;;;;7.20;4.32;;;18.30;99.90;;;;;;4986364;28;20109;-74
2023/09/03 05:35:45;;;;;;;6.95;4.35;;;18.20;99.90;;;;;;4990484;28;20096;-74
2023/09/03 05:38:11;;;;;;;6.80;4.60;;;18.30;99.90;;;;;;4987042;28;20033;-74
2023/09/03 05:40:36;;;;;;;9.65;5.38;;;18.30;99.90;;;;;;4993005;28;20114;-74
2023/09/03 05:43:02;;;;;;;12.63;4.85;;;18.40;99.90;;;;;;4991690;28;20097;-74
2023/09/03 05:45:28;;;;;;;7.03;4.20;;;18.60;99.90;;;;;;4989916;28;20081;-74
2023/09/03 05:47:53;;;;;;;8.35;5.28;;;18.70;99.90;;;;;;4989800;28;20041;-74
2023/09/03 05:50:19;;;;;;;6.20;4.00;;;18.70;99.90;;;;;;4993939;28;20034;-74
2023/09/03 05:52:45;;;;;;;7.57;4.22;;;18.70;99.90;;;;;;4987414;28;20040;-74
2023/09/03 05:55:10;;;;;;;6.40;3.53;;;18.60;99.90;;;;;;4988761;28;20108;-75
2023/09/03 05:57:37;;;;;;;7.68;4.65;;;18.60;99.90;;;;;;4984481;28;20145;-74
2023/09/03 06:00:05;;;;;;;6.70;4.40;;;18.60;99.90;;;;;;4982308;28;23488;-74
2023/09/03 06:02:33;;;;;;;7.65;5.00;;;18.50;99.90;;;;;;4986211;28;20038;-74
2023/09/03 06:04:58;;;;;;;7.78;4.10;;;18.50;99.90;;;;;;4989257;28;20459;-74
2023/09/03 06:07:24;;;;;;;7.22;4.32;;;18.60;99.90;;;;;;4987785;28;20037;-74
2023/09/03 06:09:50;;;;;;;6.03;4.05;;;18.50;99.90;;;;;;4982335;28;20026;-74
2023/09/03 06:12:16;;;;;;;6.90;3.80;;;18.50;99.90;;;;;;4989670;28;20125;-74
2023/09/03 06:14:41;;;;;;;9.40;4.80;;;18.50;99.90;;;;;;4988331;28;20072;-73
2023/09/03 06:17:07;;;;;;;6.43;3.92;;;18.50;99.90;;;;;;4981862;28;20502;-73
2023/09/03 06:19:33;;;;;;;6.72;4.65;;;18.40;99.90;;;;;;4982308;28;20506;-74
2023/09/03 06:21:58;;;;;;;9.13;4.53;;;18.60;99.90;;;;;;4983152;28;20125;-73
2023/09/03 06:24:24;;;;;;;9.45;4.95;;;18.60;99.90;;;;;;4985790;28;20130;-74
2023/09/03 06:26:50;;;;;;;6.13;4.55;;;18.60;99.90;;;;;;4982919;28;20388;-74
2023/09/03 06:29:15;;;;;;;7.68;5.85;;;18.60;99.90;;;;;;4983521;28;20044;-74
2023/09/03 06:31:41;;;;;;;8.57;5.97;;;18.60;99.90;;;;;;4982558;28;20035;-74
2023/09/03 06:34:06;;;;;;;8.45;4.88;;;18.60;99.90;;;;;;4982350;28;20058;-74
2023/09/03 06:36:32;;;;;;;8.32;4.80;;;18.70;99.90;;;;;;4985438;28;20030;-74
2023/09/03 06:38:58;;;;;;;7.18;5.22;;;18.90;99.90;;;;;;4988294;28;20030;-74
2023/09/03 06:41:24;;;;;;;7.30;4.85;;;19.00;99.90;;;;;;4981921;28;20033;-74
2023/09/03 06:43:50;;;;;;;7.18;5.53;;;19.20;99.90;;;;;;4982472;28;20026;-74
2023/09/03 06:46:15;;;;;;;9.07;4.90;;;19.40;99.90;;;;;;4984998;28;20109;-74
2023/09/03 06:48:41;;;;;;;7.68;4.63;;;19.60;99.90;;;;;;4998940;28;20041;-73
2023/09/03 06:51:07;;;;;;;6.95;4.57;;;20.10;99.90;;;;;;4990560;28;20033;-72
2023/09/03 06:53:32;;;;;;;9.70;4.75;;;20.20;99.90;;;;;;4991379;28;20033;-72
2023/09/03 06:55:58;;;;;;;8.55;4.78;;;20.30;99.90;;;;;;4992054;28;20036;-72
2023/09/03 06:58:24;;;;;;;7.85;4.72;;;20.90;99.90;;;;;;4993080;28;20040;-72
2023/09/03 07:00:50;;;;;;;7.95;4.55;;;21.80;99.90;;;;;;4992098;28;20116;-72
2023/09/03 07:03:16;;;;;;;8.63;4.45;;;22.30;99.90;;;;;;4986298;28;20030;-72
2023/09/03 07:05:42;;;;;;;7.38;4.10;;;22.10;99.90;;;;;;4985048;28;20058;-73
2023/09/03 07:08:08;;;;;;;7.50;4.13;;;21.50;99.90;;;;;;4989605;28;20932;-73
2023/09/03 07:10:33;;;;;;;6.20;3.88;;;21.80;99.90;;;;;;4996906;28;20125;-71
2023/09/03 07:12:59;;;;;;;7.22;3.75;;;21.90;99.90;;;;;;4988171;28;20392;-71
2023/09/03 07:15:26;;;;;;;10.20;4.55;;;22.10;99.90;;;;;;4985960;28;20030;-72
2023/09/03 07:17:51;;;;;;;6.22;3.75;;;22.60;99.90;;;;;;4987777;28;20112;-74
2023/09/03 07:20:17;;;;;;;6.28;4.03;;;22.60;99.90;;;;;;4986293;28;20108;-73
2023/09/03 07:22:43;;;;;;;10.68;3.92;;;22.70;99.90;;;;;;4984039;28;20078;-73
2023/09/03 07:25:11;;;;;;;5.97;3.30;;;22.20;99.90;;;;;;4986207;28;20068;-74
2023/09/03 07:27:41;;;;;;;7.13;4.13;;;21.50;99.90;;;;;;4984930;28;20176;-73
2023/09/03 07:30:08;;;;;;;5.95;4.03;;;21.40;99.90;;;;;;4989243;28;20113;-73
2023/09/03 07:32:36;;;;;;;6.03;4.10;;;21.30;99.90;;;;;;4983302;28;20427;-74
2023/09/03 07:35:06;;;;;;;8.02;4.20;;;21.10;99.90;;;;;;4984665;28;20030;-73
2023/09/03 07:37:32;;;;;;;7.15;4.07;;;21.10;99.90;;;;;;4988116;28;20471;-75
2023/09/03 07:39:57;;;;;;;6.32;3.88;;;21.10;99.90;;;;;;4988351;28;20022;-74
2023/09/03 07:42:23;;;;;;;7.20;4.20;;;21.10;99.90;;;;;;4986040;28;20376;-74
2023/09/03 07:44:49;;;;;;;6.30;4.00;;;21.10;99.90;;;;;;4983063;28;20034;-74
2023/09/03 07:47:15;;;;;;;6.97;3.83;;;21.10;99.90;;;;;;4983514;28;20030;-74
2023/09/03 07:49:41;;;;;;;9.10;4.43;;;21.10;99.90;;;;;;4986983;28;20026;-74
2023/09/03 07:52:08;;;;;;;10.30;4.00;;;21.20;99.90;;;;;;4980004;28;20037;-75
2023/09/03 07:54:33;;;;;;;6.30;3.70;;;21.10;99.90;;;;;;4990894;28;20084;-74
2023/09/03 07:56:59;;;;;;;6.93;3.90;;;21.00;99.90;;;;;;4992198;28;20041;-74
2023/09/03 07:59:25;;;;;;;6.50;4.63;;;21.10;99.90;;;;;;4990533;28;20034;-75
2023/09/03 08:01:50;;;;;;;16.13;4.35;;;21.00;99.90;;;;;;4985838;28;21529;-74
2023/09/03 08:04:16;;;;;;;8.57;4.10;;;21.10;99.90;;;;;;4992874;28;20057;-74
2023/09/03 08:06:42;;;;;;;8.20;4.10;;;21.20;99.90;;;;;;4987559;28;20919;-75
2023/09/03 08:09:08;;;;;;;5.40;3.67;;;21.10;99.90;;;;;;4994816;28;20396;-75
2023/09/03 08:11:36;;;;;;;7.40;4.05;;;21.20;99.90;;;;;;4990019;28;20142;-74
2023/09/03 08:14:02;;;;;;;6.72;4.32;;;21.40;99.90;;;;;;4994577;28;20142;-74
2023/09/03 08:16:28;;;;;;;5.70;3.50;;;21.30;99.90;;;;;;4987671;28;20026;-74
2023/09/03 08:18:53;;;;;;;5.88;4.13;;;21.30;99.90;;;;;;4994817;28;20090;-74
2023/09/03 08:21:19;;;;;;;9.20;4.00;;;21.20;99.90;;;;;;4989029;28;20069;-74
2023/09/03 08:23:45;;;;;;;7.45;4.22;;;21.30;99.90;;;;;;5004513;28;20691;-74
2023/09/03 08:26:10;;;;;;;5.72;3.35;;;21.50;99.90;;;;;;4994865;28;20030;-74
2023/09/03 08:28:36;;;;;;;7.00;4.72;;;21.40;99.90;;;;;;4993325;28;20068;-74
2023/09/03 08:31:03;;;;;;;6.63;4.00;;;21.50;99.90;;;;;;4988001;28;20160;-74
2023/09/03 08:33:28;;;;;;;5.70;4.05;;;21.50;99.90;;;;;;5000155;28;20025;-74
2023/09/03 08:35:54;;;;;;;6.85;3.80;;;21.50;99.90;;;;;;4989367;28;20018;-74
2023/09/03 08:38:20;;;;;;;7.03;4.10;;;21.50;99.90;;;;;;4991307;28;20765;-74
2023/09/03 08:40:46;;;;;;;5.82;3.80;;;21.40;99.90;;;;;;4990427;28;20033;-74
2023/09/03 08:43:17;;;;;;;5.80;4.35;;;21.70;99.90;;;;;;4992345;28;20030;-74
2023/09/03 08:45:56;;;;;;;6.18;3.80;;;21.90;99.90;;;;;;4990366;28;20038;-74
2023/09/03 08:48:22;;;;;;;6.13;3.97;;;22.20;99.90;;;;;;4995736;28;20033;-74
2023/09/03 08:50:48;;;;;;;5.72;3.70;;;22.30;99.90;;;;;;4988795;28;20030;-74
2023/09/03 08:53:14;;;;;;;9.43;3.88;;;24.00;99.90;;;;;;4993439;28;20440;-74
2023/09/03 08:55:40;;;;;;;6.00;4.00;;;25.90;99.90;;;;;;5009451;28;20044;-73
2023/09/03 08:58:06;;;;;;;5.88;3.60;;;26.70;98.40;;;;;;4991308;28;20033;-74
2023/09/03 09:00:36;;;;;;;7.85;3.83;;;26.80;97.60;;;;;;4993481;28;20087;-75
2023/09/03 09:03:06;;;;;;;5.35;3.38;;;27.40;97.10;;;;;;4991919;28;20029;-74
2023/09/03 09:05:33;;;;;;;9.63;4.50;;;27.60;96.50;;;;;;4996142;28;20064;-75
2023/09/03 09:08:01;;;;;;;5.57;3.55;;;28.00;96.80;;;;;;4994093;28;20030;-74
2023/09/03 09:10:32;;;;;;;6.15;4.07;;;28.00;96.00;;;;;;4990999;28;20410;-74
2023/09/03 09:13:05;;;;;;;6.97;4.30;;;27.50;96.90;;;;;;4993540;28;20037;-74
2023/09/03 09:15:33;;;;;;;;;;;27.20;97.30;;;;;;4988218;28;20034;-74
2023/09/03 09:17:58;;;;;;;11.27;5.03;;;26.90;96.90;;;;;;4990630;28;19910;-78
2023/09/03 09:20:24;;;;;;;5.35;3.42;;;27.10;97.50;;;;;;4990056;28;20048;-74
2023/09/03 09:22:50;;;;;;;6.03;3.67;;;27.50;97.10;;;;;;4984753;28;20034;-75
2023/09/03 09:25:23;;;;;;;5.88;3.78;;;27.70;96.90;;;;;;4984939;28;20492;-74
2023/09/03 09:27:51;;;;;;;5.72;3.80;;;28.00;96.70;;;;;;4987175;28;20128;-75
2023/09/03 09:30:19;;;;;;;5.38;3.47;;;27.50;97.40;;;;;;4983211;28;20479;-74
2023/09/03 09:32:46;;;;;;;7.68;3.95;;;27.20;97.50;;;;;;4986306;28;20392;-74
2023/09/03 09:35:23;;;;;;;6.80;4.18;;;26.50;97.90;;;;;;4985365;28;20026;-75
2023/09/03 09:37:48;;;;;;;6.00;3.78;;;25.40;99.00;;;;;;4984956;28;20121;-75
2023/09/03 09:40:28;;;;;;;4.35;2.67;;;25.10;98.60;;;;;;4970813;28;20113;-75
2023/09/03 09:42:59;;;;;;;6.38;3.78;;;25.30;98.80;;;;;;4985109;28;25413;-75
2023/09/03 09:45:25;;;;;;;6.28;3.85;;;24.90;99.70;;;;;;4988173;28;20041;-75
2023/09/03 09:48:09;;;;;;;6.90;4.05;;;24.60;99.70;;;;;;4994090;28;20034;-75
2023/09/03 09:50:40;;;;;;;7.00;4.03;;;24.50;99.80;;;;;;4993096;28;20034;-76
2023/09/03 09:53:26;;;;;;;8.40;4.40;;;24.60;99.70;;;;;;4988238;28;20035;-74
2023/09/03 09:56:09;;;;;;;6.25;3.72;;;24.90;99.90;;;;;;4992711;28;20022;-75
2023/09/03 09:58:36;;;;;;;5.90;3.80;;;25.00;99.60;;;;;;4994675;28;20056;-74
2023/09/03 10:01:03;;;;;;;6.22;3.92;;;24.80;99.40;;;;;;4993397;28;20120;-75
2023/09/03 10:03:42;;;;;;;5.88;4.07;;;25.00;99.50;;;;;;4987867;28;20065;-75
2023/09/03 10:06:08;;;;;;;6.68;3.80;;;25.20;99.40;;;;;;4989560;28;20052;-74
2023/09/03 10:08:35;;;;;;;6.80;3.63;;;25.10;99.00;;;;;;4986714;28;20582;-75
2023/09/03 10:11:01;;;;;;;6.57;4.00;;;25.20;99.30;;;;;;4987963;28;20030;-75
2023/09/03 10:13:28;;;;;;;7.20;3.85;;;25.50;99.90;;;;;;4990955;28;20028;-75
2023/09/03 10:15:54;;;;;;;4.80;2.90;;;25.40;99.40;;;;;;4988410;28;20109;-75
2023/09/03 10:18:21;;;;;;;4.47;3.08;;;25.40;98.70;;;;;;4990406;28;20464;-74
2023/09/03 10:20:48;;;;;;;19.30;3.97;;;25.40;99.30;;;;;;4994052;28;20516;-75
2023/09/03 10:23:18;;;;;;;5.60;2.95;;;25.40;98.60;;;;;;4986382;28;20027;-75
2023/09/03 10:25:45;;;;;;;8.15;3.42;;;25.40;98.20;;;;;;4985640;28;20113;-74
2023/09/03 10:28:12;;;;;;;6.82;3.42;;;25.40;98.40;;;;;;4989650;28;20038;-75
2023/09/03 10:30:42;;;;;;;7.72;3.42;;;25.30;99.20;;;;;;4985735;28;20034;-74
2023/09/03 10:33:09;;;;;;;6.40;3.25;;;25.70;99.00;;;;;;4987677;28;20087;-74
2023/09/03 10:35:34;;;;;;;5.38;3.25;;;25.70;97.60;;;;;;4991408;28;20037;-75
2023/09/03 10:38:00;;;;;;;4.55;2.83;;;25.80;98.20;;;;;;4992923;28;20022;-75
2023/09/03 10:40:30;;;;;;;6.47;3.28;;;26.10;98.20;;;;;;4990115;28;20502;-74
2023/09/03 10:43:18;;;;;;;6.32;3.80;;;26.30;97.90;;;;;;4990449;28;20627;-75
2023/09/03 10:46:06;;;;;;;6.55;3.55;;;26.30;97.50;;;;;;4987294;28;20515;-74
2023/09/03 10:48:36;;;;;;;7.45;3.38;;;26.40;98.50;;;;;;4986951;28;20034;-75
2023/09/03 10:51:03;;;;;;;10.95;3.80;;;26.60;98.20;;;;;;4986975;28;20133;-75
2023/09/03 10:53:41;;;;;;;13.20;3.72;;;26.60;98.60;;;;;;4991373;28;20034;-75
2023/09/03 10:56:15;;;;;;;6.95;3.20;;;26.80;97.90;;;;;;4992781;28;20453;-75
2023/09/03 10:59:01;;;;;;;5.20;3.50;;;26.90;97.50;;;;;;4986777;28;20042;-75
2023/09/03 11:01:31;;;;;;;6.68;3.35;;;27.00;98.00;;;;;;4986441;28;20538;-76
2023/09/03 11:04:03;;;;;;;5.55;3.78;;;27.10;97.60;;;;;;4993444;28;20183;-76
2023/09/03 11:06:31;;;;;;;4.72;3.53;;;26.90;96.90;;;;;;4998632;28;20036;-75
2023/09/03 11:09:12;;;;;;;5.88;3.13;;;26.90;97.80;;;;;;5003604;28;20077;-74
2023/09/03 11:11:38;;;;;;;5.95;3.20;;;26.80;98.50;;;;;;4997276;28;20092;-75
2023/09/03 11:14:07;;;;;;;4.90;3.00;;;26.80;98.10;;;;;;5004177;28;20034;-75
2023/09/03 11:16:37;;;;;;;7.38;3.70;;;26.90;98.50;;;;;;5004192;28;20026;-76
2023/09/03 11:19:07;;;;;;;6.60;3.60;;;26.90;98.30;;;;;;5005636;28;20065;-75
2023/09/03 11:21:33;;;;;;;6.88;3.17;;;26.90;98.30;;;;;;4996641;28;20026;-75
2023/09/03 11:24:03;;;;;;;6.35;3.28;;;27.10;98.40;;;;;;5002199;28;20096;-75
2023/09/03 11:26:30;;;;;;;4.65;2.60;;;27.10;98.20;;;;;;4986631;28;20084;-75
2023/09/03 11:28:56;;;;;;;7.13;3.17;;;27.30;98.00;;;;;;4987380;28;20637;-75
2023/09/03 11:31:24;;;;;;;5.70;3.35;;;27.30;97.00;;;;;;4988580;28;20030;-76
2023/09/03 11:33:50;;;;;;;5.55;3.28;;;27.40;97.30;;;;;;4985673;28;20026;-75
2023/09/03 11:36:21;;;;;;;5.85;3.20;;;27.50;97.60;;;;;;4986137;28;20034;-75
2023/09/03 11:38:48;;;;;;;6.15;3.17;;;27.10;96.60;;;;;;4986216;28;20379;-75
2023/09/03 11:41:17;;;;;;;6.03;3.15;;;27.20;97.00;;;;;;4990703;28;20431;-75
2023/09/03 11:43:43;;;;;;;5.85;2.65;;;27.30;97.10;;;;;;4982933;28;20042;-75
2023/09/03 11:46:13;;;;;;;5.38;2.88;;;27.30;97.00;;;;;;4986424;28;20052;-76
2023/09/03 11:48:40;;;;;;;5.18;3.30;;;27.30;96.90;;;;;;4985832;28;20049;-75
2023/09/03 11:51:06;;;;;;;6.25;3.25;;;27.30;96.90;;;;;;4988927;28;20029;-76
2023/09/03 11:53:42;;;;;;;5.43;3.28;;;27.30;96.70;;;;;;4980838;28;20524;-77
2023/09/03 11:56:12;;;;;;;5.40;3.03;;;27.60;97.40;;;;;;4987601;28;20112;-76
2023/09/03 11:58:39;;;;;;;4.78;2.95;;;27.70;96.80;;;;;;4984270;28;20039;-76
2023/09/03 12:01:06;;;;;;;5.00;3.10;;;27.70;96.90;;;;;;4987473;28;20030;-75
2023/09/03 12:03:32;;;;;;;4.55;3.00;;;27.60;96.90;;;;;;4986632;28;20121;-75
2023/09/03 12:05:58;;;;;;;6.82;2.85;;;27.80;98.10;;;;;;4992932;28;20060;-76
2023/09/03 12:08:25;;;;;;;5.70;3.10;;;28.00;97.70;;;;;;4995461;28;20033;-75
2023/09/03 12:10:51;;;;;;;6.35;3.17;;;28.10;97.30;;;;;;5002998;28;20169;-76
2023/09/03 12:13:31;;;;;;;4.20;2.83;;;28.10;97.00;;;;;;5007024;28;20110;-76
2023/09/03 12:16:10;;;;;;;6.68;3.00;;;28.00;96.60;;;;;;5003193;28;20036;-77
2023/09/03 12:18:37;;;;;;;5.05;3.13;;;27.90;96.70;;;;;;5005847;28;20121;-76
2023/09/03 12:21:07;;;;;;;4.22;2.80;;;28.00;97.40;;;;;;5004523;28;20036;-74
2023/09/03 12:23:35;;;;;;;5.78;3.17;;;28.10;97.40;;;;;;5004927;28;20045;-76
2023/09/03 12:26:01;;;;;;;6.28;3.42;;;28.20;97.30;;;;;;5005068;28;20025;-76
2023/09/03 12:28:35;;;;;;;6.53;3.33;;;28.20;97.50;;;;;;4991757;28;20061;-76
2023/09/03 12:31:03;;;;;;;5.18;3.15;;;28.00;95.90;;;;;;5004798;28;20028;-76
2023/09/03 12:33:34;;;;;;;4.85;2.83;;;27.80;96.00;;;;;;5004578;28;20057;-76
2023/09/03 12:36:11;;;;;;;4.22;3.00;;;27.70;96.00;;;;;;5003822;28;20034;-76
2023/09/03 12:39:06;;;;;;;5.10;3.33;;;27.80;97.20;;;;;;5003218;28;20030;-76
2023/09/03 12:41:34;;;;;;;6.53;3.10;;;28.20;97.80;;;;;;4991316;28;20124;-75
2023/09/03 12:44:08;;;;;;;6.05;3.30;;;28.30;97.30;;;;;;5004453;28;20029;-75
2023/09/03 12:46:34;;;;;;;;;;;28.50;97.00;;;;;;5004887;28;20038;-75
2023/09/03 12:49:01;;;;;;;8.38;3.42;;;28.40;96.60;;;;;;5005420;28;19917;-74
2023/09/03 12:51:27;;;;;;;6.43;3.10;;;28.10;96.20;;;;;;5002616;28;20034;-75